Time;durP1;ratioP1;P1;durP2;ratioP2;P2;SDS_P1;SDS_P2;PMS_P1;PMS_P2;Temp;Humidity;BMP_temperature;BMP_pressure;BME280_temperature;BME280_humidity;BME280_pressure;Samples;Min_cycle;Max_cycle;Signal;HPM_P1;HPM_P2
2022/05/06 07:58:57;;;;;;;32.95;26.20;;;;;;;12.08;92.50;102520.31;5280442;28;20383;-85
2022/05/06 08:04:34;;;;;;;36.70;26.40;;;;;;;12.15;91.58;102520.97;5265548;28;20033;-83
2022/05/06 08:07:07;;;;;;;35.72;25.27;;;;;;;12.12;90.55;102531.78;5262362;28;20025;-84
2022/05/06 08:09:38;;;;;;;30.58;23.70;;;;;;;12.30;91.87;102528.66;5261144;28;20029;-80
2022/05/06 08:12:10;;;;;;;37.38;29.55;;;;;;;12.33;90.94;102533.69;5260234;28;20029;-80
2022/05/06 08:14:42;;;;;;;33.40;26.15;;;;;;;12.43;90.82;102534.91;5259129;28;20033;-80
2022/05/06 08:17:14;;;;;;;33.15;26.05;;;;;;;12.24;89.69;102526.88;5259406;28;20079;-79
2022/05/06 08:19:45;;;;;;;32.45;25.63;;;;;;;12.39;90.24;102534.56;5259589;28;20022;-80
2022/05/06 08:22:16;;;;;;;32.35;25.02;;;;;;;12.36;89.07;102535.09;5255262;28;20021;-77
2022/05/06 08:24:48;;;;;;;31.70;23.75;;;;;;;12.62;88.74;102525.91;5261603;28;20041;-78
2022/05/06 08:27:19;;;;;;;25.55;21.88;;;;;;;12.72;87.83;102522.41;5247730;28;20406;-78
2022/05/06 08:29:50;;;;;;;31.70;24.13;;;;;;;12.37;87.64;102522.88;5272188;28;20376;-78
2022/05/06 08:32:24;;;;;;;31.15;24.83;;;;;;;12.39;88.88;102523.44;5274217;28;20373;-79
2022/05/06 08:34:56;;;;;;;29.95;25.05;;;;;;;12.42;88.45;102534.03;5265991;28;20037;-77
2022/05/06 08:37:27;;;;;;;27.58;24.30;;;;;;;12.54;89.19;102520.00;5275762;28;20024;-83
2022/05/06 08:39:58;;;;;;;32.17;26.10;;;;;;;12.56;89.13;102515.00;5264484;28;20028;-86
2022/05/06 08:42:30;;;;;;;30.83;23.60;;;;;;;12.72;88.21;102511.28;5281646;28;20025;-85
2022/05/06 08:50:53;;;;;;;31.85;24.42;;;;;;;12.86;86.32;102513.63;5241647;28;20030;-80
2022/05/06 08:53:33;;;;;;;33.70;28.27;;;;;;;13.03;85.56;102506.81;5258461;28;20021;-84
2022/05/06 08:56:08;;;;;;;27.08;23.30;;;;;;;13.07;85.04;102509.09;5267884;28;20033;-81
2022/05/06 08:58:41;;;;;;;31.27;24.70;;;;;;;13.08;84.38;102510.75;5265686;28;20048;-82
2022/05/06 09:01:15;;;;;;;29.45;23.80;;;;;;;13.18;84.48;102503.31;5253127;28;20078;-84
2022/05/06 09:03:48;;;;;;;28.17;23.77;;;;;;;13.22;83.43;102501.69;5260951;28;20030;-81
2022/05/06 09:06:27;;;;;;;26.92;22.63;;;;;;;13.33;83.32;102502.63;5259231;28;20108;-82
2022/05/06 09:08:59;;;;;;;23.60;21.20;;;;;;;13.34;83.25;102498.72;5252665;28;20022;-83
2022/05/06 09:16:39;;;;;;;26.85;23.38;;;;;;;13.17;83.68;102498.84;5228807;28;20493;-81
2022/05/06 09:17:25;;;;;;;27.55;22.42;;;;;;;13.48;83.50;102491.56;5224034;28;20049;-81
2022/05/06 09:19:56;;;;;;;25.23;21.70;;;;;;;13.50;83.47;102488.53;5244581;28;20441;-82
2022/05/06 09:22:27;;;;;;;24.63;21.83;;;;;;;13.49;82.85;102489.63;5243971;28;20104;-79
2022/05/06 09:24:59;;;;;;;25.20;22.50;;;;;;;13.48;83.04;102487.94;5243470;28;20674;-80
2022/05/06 09:27:30;;;;;;;24.95;22.00;;;;;;;13.54;82.17;102486.03;5255803;28;20472;-80
2022/05/06 09:30:11;;;;;;;31.40;28.05;;;;;;;13.67;82.32;102496.69;5255102;28;20037;-75
2022/05/06 09:32:42;;;;;;;23.70;19.92;;;;;;;13.55;81.68;102485.75;5263042;28;20033;-79
2022/05/06 09:35:14;;;;;;;21.50;19.33;;;;;;;13.66;81.71;102481.06;5239268;28;20048;-79
2022/05/06 09:37:47;;;;;;;23.48;20.67;;;;;;;13.86;81.06;102480.34;5223109;28;20069;-80
2022/05/06 09:40:20;;;;;;;21.77;19.52;;;;;;;13.99;81.16;102487.38;5223332;28;20033;-84
2022/05/06 09:42:58;;;;;;;22.30;18.25;;;;;;;13.87;79.95;102485.63;5240132;28;20025;-74
2022/05/06 09:45:35;;;;;;;41.00;36.78;;;;;;;13.98;80.30;102478.13;5242815;28;20091;-77
2022/05/06 09:48:09;;;;;;;22.05;19.70;;;;;;;14.12;79.90;102475.69;5236175;28;20073;-73
2022/05/06 09:50:47;;;;;;;19.08;17.08;;;;;;;14.20;78.56;102471.53;5223214;28;20049;-74
2022/05/06 09:53:20;;;;;;;20.83;18.60;;;;;;;14.21;78.61;102481.56;5222792;28;20026;-73
2022/05/06 09:55:51;;;;;;;18.30;16.33;;;;;;;14.31;78.04;102476.00;5222588;28;20022;-75
2022/05/06 09:58:23;;;;;;;18.80;16.85;;;;;;;14.39;77.75;102475.47;5222509;28;20456;-77
2022/05/06 10:00:54;;;;;;;20.95;18.42;;;;;;;14.54;77.73;102469.09;5222213;28;20026;-76
2022/05/06 10:03:25;;;;;;;21.17;18.15;;;;;;;14.71;77.76;102478.06;5223976;28;20060;-75
2022/05/06 10:05:57;;;;;;;17.60;15.60;;;;;;;14.75;75.94;102479.19;5222904;28;20029;-81
2022/05/06 10:08:33;;;;;;;20.35;15.52;;;;;;;14.78;75.45;102475.00;5225440;28;20439;-77
2022/05/06 10:11:12;;;;;;;16.45;14.70;;;;;;;14.96;75.41;102480.03;5243243;28;20056;-76
2022/05/06 10:13:46;;;;;;;17.02;14.38;;;;;;;15.05;74.65;102477.50;5242044;28;20033;-74
2022/05/06 10:16:17;;;;;;;14.20;12.80;;;;;;;15.27;73.48;102466.03;5243084;28;20017;-72
2022/05/06 10:18:49;;;;;;;30.92;27.80;;;;;;;15.28;72.72;102462.09;5248711;28;20036;-75
2022/05/06 10:21:47;;;;;;;12.80;10.85;;;;;;;15.53;72.14;102454.78;5237809;28;20045;-74
2022/05/06 10:24:20;;;;;;;18.45;15.50;;;;;;;15.41;71.13;102455.09;5242584;28;20028;-74
2022/05/06 10:26:52;;;;;;;11.05;9.85;;;;;;;15.46;68.97;102460.66;5255070;28;20032;-72
2022/05/06 10:32:54;;;;;;;8.90;8.00;;;;;;;15.99;67.56;102452.66;5263715;28;20029;-74
2022/05/06 10:35:43;;;;;;;31.48;28.30;;;;;;;15.92;67.99;102451.31;5243932;28;20469;-75
2022/05/06 10:38:25;;;;;;;14.48;11.02;;;;;;;16.01;68.25;102450.41;5250057;28;20021;-74
2022/05/06 10:41:02;;;;;;;12.25;11.05;;;;;;;15.84;68.14;102438.75;5242993;28;20033;-75
2022/05/06 10:43:39;;;;;;;15.43;13.85;;;;;;;16.03;69.72;102436.16;5230869;28;20034;-74
2022/05/06 10:46:34;;;;;;;15.52;13.88;;;;;;;16.18;68.91;102438.88;5221677;28;20026;-74
2022/05/06 10:49:43;;;;;;;13.13;11.77;;;;;;;16.33;67.87;102432.31;5229915;28;20079;-74
2022/05/06 10:52:24;;;;;;;12.10;10.90;;;;;;;16.43;66.75;102429.44;5219262;28;20026;-74
2022/05/06 10:55:00;;;;;;;12.35;11.02;;;;;;;16.61;66.63;102427.91;5226720;28;20104;-74
2022/05/06 10:57:45;;;;;;;13.98;11.52;;;;;;;16.63;66.03;102422.03;5240856;28;20057;-79
2022/05/06 11:00:20;;;;;;;12.40;10.35;;;;;;;16.56;64.89;102427.94;5234759;28;20030;-77
2022/05/06 11:02:52;;;;;;;;;;;;;;;16.81;66.66;102424.13;5238278;28;20025;-73
2022/05/06 11:05:24;;;;;;;13.00;11.48;;;;;;;16.84;64.79;102426.34;5258270;28;20364;-75
2022/05/06 11:07:58;;;;;;;12.15;10.85;;;;;;;16.91;65.02;102426.84;5262540;28;20025;-76
2022/05/06 11:10:33;;;;;;;12.23;11.02;;;;;;;16.92;64.34;102427.66;5247841;28;20464;-76
2022/05/06 11:13:07;;;;;;;19.45;17.63;;;;;;;17.00;63.83;102426.19;5230817;28;20460;-76
2022/05/06 11:15:42;;;;;;;9.95;9.00;;;;;;;17.02;61.88;102413.56;5261052;28;20033;-74
2022/05/06 11:18:13;;;;;;;11.50;10.40;;;;;;;16.92;62.06;102419.25;5224600;28;20124;-76
2022/05/06 11:20:45;;;;;;;38.50;34.72;;;;;;;16.85;62.26;102419.63;5221124;28;20026;-75
2022/05/06 11:23:18;;;;;;;11.93;10.80;;;;;;;16.74;63.09;102407.66;5220690;28;20380;-76
2022/05/06 11:25:55;;;;;;;12.23;10.20;;;;;;;16.70;63.04;102409.34;5258592;28;20036;-75
2022/05/06 11:28:28;;;;;;;11.90;9.18;;;;;;;16.92;63.12;102408.91;5260070;28;20029;-74
2022/05/06 11:31:00;;;;;;;9.50;8.60;;;;;;;17.05;62.18;102409.31;5220570;28;20465;-73
2022/05/06 11:33:32;;;;;;;9.50;8.50;;;;;;;17.10;61.38;102407.34;5230600;28;20576;-73
2022/05/06 11:36:07;;;;;;;9.57;8.63;;;;;;;17.09;60.70;102400.03;5240869;28;20112;-73
2022/05/06 11:38:42;;;;;;;9.88;8.85;;;;;;;17.24;60.29;102398.22;5240123;28;20040;-73
2022/05/06 11:41:17;;;;;;;10.13;9.13;;;;;;;17.25;59.72;102402.69;5244710;28;20377;-75
2022/05/06 11:44:02;;;;;;;11.05;9.98;;;;;;;17.43;59.28;102399.09;5249065;28;20029;-74
2022/05/06 11:49:29;;;;;;;9.75;8.15;;;;;;;17.48;58.61;102387.81;5237516;28;20587;-74
2022/05/06 11:52:00;;;;;;;9.57;8.18;;;;;;;17.56;58.26;102383.50;5223914;28;20045;-76
2022/05/06 11:54:31;;;;;;;9.82;8.05;;;;;;;17.65;58.26;102384.53;5239474;28;20435;-74
2022/05/06 11:57:03;;;;;;;12.82;10.38;;;;;;;18.21;56.96;102389.38;5261907;28;20097;-73
2022/05/06 11:59:34;;;;;;;9.73;7.72;;;;;;;18.15;56.03;102379.38;5260490;28;20033;-76
2022/05/06 12:02:06;;;;;;;8.65;7.80;;;;;;;18.35;55.92;102377.38;5245720;28;20026;-75
2022/05/06 12:04:38;;;;;;;10.38;9.02;;;;;;;18.52;55.27;102383.25;5222505;28;20030;-72
2022/05/06 12:07:09;;;;;;;9.90;8.35;;;;;;;18.33;54.25;102374.03;5221169;28;20076;-72
2022/05/06 12:09:43;;;;;;;9.45;8.40;;;;;;;18.38;53.12;102369.19;5244735;28;20037;-72
2022/05/06 12:12:14;;;;;;;27.52;24.67;;;;;;;18.65;54.24;102362.81;5240957;28;20079;-73
2022/05/06 12:14:45;;;;;;;9.60;7.75;;;;;;;18.79;53.16;102360.06;5240083;28;20504;-74
2022/05/06 12:17:18;;;;;;;8.18;7.38;;;;;;;18.93;52.42;102359.25;5244475;28;20021;-76
2022/05/06 12:19:55;;;;;;;15.02;12.50;;;;;;;19.02;53.00;102365.81;5237285;28;20076;-76
2022/05/06 12:22:27;;;;;;;10.85;9.30;;;;;;;18.90;52.85;102363.53;5233927;28;20021;-74
2022/05/06 12:25:01;;;;;;;8.73;7.93;;;;;;;18.83;52.67;102369.53;5232932;28;20092;-76
2022/05/06 12:27:34;;;;;;;8.23;7.43;;;;;;;19.28;52.79;102358.56;5219209;28;20525;-77
2022/05/06 12:30:16;;;;;;;10.45;8.57;;;;;;;19.26;52.96;102355.22;5235244;28;20068;-75
2022/05/06 12:33:07;;;;;;;10.10;8.90;;;;;;;19.49;53.75;102350.53;5240512;28;20104;-74
2022/05/06 12:35:59;;;;;;;8.70;7.82;;;;;;;19.50;51.79;102357.81;5238268;28;20107;-76
2022/05/06 12:38:36;;;;;;;8.35;7.30;;;;;;;19.62;50.53;102348.00;5250390;28;20040;-76
2022/05/06 12:41:19;;;;;;;8.73;7.65;;;;;;;19.82;50.30;102353.22;5240663;28;20029;-76
2022/05/06 12:43:53;;;;;;;9.80;7.85;;;;;;;19.86;48.97;102347.78;5229896;28;20052;-75
2022/05/06 12:46:29;;;;;;;11.27;9.65;;;;;;;19.83;49.00;102342.78;5247593;28;20026;-76
2022/05/06 12:51:50;;;;;;;14.55;13.10;;;;;;;19.78;49.04;102343.72;5244633;28;20033;-75
2022/05/06 12:54:22;;;;;;;49.35;44.38;;;;;;;19.78;48.51;102343.72;5243602;28;20033;-78
2022/05/06 12:56:55;;;;;;;26.35;23.90;;;;;;;19.63;49.20;102342.03;5243200;28;20483;-77
2022/05/06 12:59:26;;;;;;;10.93;9.82;;;;;;;19.75;48.05;102347.19;5243920;28;20121;-76
2022/05/06 13:01:58;;;;;;;9.57;8.43;;;;;;;20.11;48.03;102340.72;5241002;28;20132;-77
2022/05/06 13:04:29;;;;;;;9.55;8.65;;;;;;;19.96;48.08;102342.72;5238317;28;20033;-77
2022/05/06 13:07:01;;;;;;;10.57;9.23;;;;;;;19.77;48.25;102345.72;5244305;28;20030;-76
2022/05/06 13:09:32;;;;;;;10.35;9.35;;;;;;;19.93;48.33;102334.94;5263405;28;20025;-77
2022/05/06 13:12:03;;;;;;;11.07;9.95;;;;;;;19.73;49.44;102332.56;5240400;28;20064;-78
2022/05/06 13:14:35;;;;;;;12.43;9.38;;;;;;;20.10;48.05;102337.06;5244774;28;20472;-84
2022/05/06 13:17:07;;;;;;;12.18;9.88;;;;;;;20.00;47.30;102330.84;5243559;28;20032;-78
2022/05/06 13:19:38;;;;;;;12.05;9.48;;;;;;;20.23;47.29;102326.06;5251811;28;20121;-77
2022/05/06 13:22:09;;;;;;;11.15;10.05;;;;;;;20.28;47.02;102325.94;5247357;28;20028;-78
2022/05/06 13:24:41;;;;;;;11.25;9.77;;;;;;;20.22;47.80;102319.59;5263532;28;20025;-75
2022/05/06 13:27:12;;;;;;;12.00;10.27;;;;;;;20.11;47.75;102327.47;5244327;28;20061;-76
2022/05/06 13:29:43;;;;;;;10.63;9.60;;;;;;;20.56;47.08;102327.50;5236157;28;20032;-74
2022/05/06 13:32:15;;;;;;;12.27;10.55;;;;;;;20.58;46.31;102324.31;5240923;28;20037;-78
2022/05/06 13:34:46;;;;;;;11.25;9.90;;;;;;;20.71;45.63;102329.06;5235356;28;20128;-75
2022/05/06 13:37:17;;;;;;;14.35;9.02;;;;;;;20.81;43.53;102320.34;5245875;28;20494;-75
2022/05/06 13:39:48;;;;;;;9.30;8.35;;;;;;;20.90;43.33;102319.53;5246358;28;20032;-74
2022/05/06 13:42:20;;;;;;;9.25;8.02;;;;;;;20.98;42.50;102321.56;5243992;28;20033;-76
2022/05/06 13:44:51;;;;;;;9.90;8.93;;;;;;;20.95;43.04;102319.41;5245852;28;20116;-77
2022/05/06 13:47:24;;;;;;;9.82;8.63;;;;;;;21.16;42.85;102323.28;5247766;28;20470;-76
2022/05/06 13:49:55;;;;;;;10.68;9.57;;;;;;;21.02;43.13;102316.94;5223440;28;20088;-78
2022/05/06 13:52:26;;;;;;;14.10;12.63;;;;;;;21.18;42.87;102318.16;5222084;28;20022;-76
2022/05/06 13:54:59;;;;;;;14.57;10.02;;;;;;;21.03;42.82;102310.13;5222856;28;20026;-78
2022/05/06 14:00:25;;;;;;;10.98;9.10;;;;;;;21.02;42.34;102311.31;5242674;28;20460;-77
2022/05/06 14:02:57;;;;;;;17.90;16.10;;;;;;;21.51;42.61;102305.66;5233923;28;20026;-76
2022/05/06 14:05:28;;;;;;;10.82;9.73;;;;;;;21.13;41.43;102301.38;5222635;28;20014;-77
2022/05/06 14:08:00;;;;;;;14.60;10.43;;;;;;;20.99;42.23;102300.69;5237823;28;20025;-76
2022/05/06 14:10:32;;;;;;;11.75;9.55;;;;;;;21.22;40.48;102302.25;5243053;28;20028;-76
2022/05/06 14:13:03;;;;;;;12.52;9.43;;;;;;;21.34;40.82;102295.13;5242270;28;20033;-76
2022/05/06 14:15:35;;;;;;;13.63;11.05;;;;;;;21.69;41.40;102296.06;5242011;28;20026;-77
2022/05/06 14:18:07;;;;;;;10.90;8.95;;;;;;;21.64;40.41;102290.56;5236285;28;20460;-77
2022/05/06 14:20:38;;;;;;;13.20;10.98;;;;;;;21.31;42.08;102295.81;5243003;28;20035;-77
2022/05/06 14:23:11;;;;;;;13.40;10.23;;;;;;;21.26;42.44;102289.13;5252694;28;20098;-76
2022/05/06 14:25:44;;;;;;;13.05;10.90;;;;;;;21.37;42.33;102297.28;5222251;28;20033;-75
2022/05/06 14:30:56;;;;;;;13.43;10.07;;;;;;;21.51;42.36;102286.75;1493463;26;20069;-71
2022/05/06 14:33:28;;;;;;;15.23;10.95;;;;;;;21.64;42.58;102280.09;5222391;28;20026;-70
2022/05/06 14:36:03;;;;;;;11.23;10.13;;;;;;;21.64;42.28;102288.56;5221460;28;20022;-76
2022/05/06 14:38:35;;;;;;;11.23;9.02;;;;;;;21.90;41.01;102284.94;5241437;28;20052;-75
2022/05/06 14:41:09;;;;;;;12.25;8.25;;;;;;;22.11;39.23;102276.59;5231845;28;20026;-72
2022/05/06 14:43:43;;;;;;;10.65;9.55;;;;;;;21.90;39.78;102284.94;5222057;28;20065;-71
2022/05/06 14:46:14;;;;;;;14.00;12.30;;;;;;;21.79;39.83;102275.16;5222029;28;20369;-74
2022/05/06 14:48:48;;;;;;;12.82;9.48;;;;;;;21.70;40.42;102275.97;5220746;28;20030;-73
2022/05/06 14:51:19;;;;;;;11.63;10.30;;;;;;;21.38;40.29;102265.97;5234674;28;20465;-73
2022/05/06 14:53:51;;;;;;;12.05;9.75;;;;;;;21.54;41.51;102271.97;5229120;28;20080;-73
2022/05/06 14:56:23;;;;;;;16.85;14.95;;;;;;;21.80;41.51;102263.50;5220385;28;20461;-74
2022/05/06 14:58:55;;;;;;;16.52;14.93;;;;;;;21.61;41.12;102265.84;5221252;28;20103;-74
2022/05/06 15:01:26;;;;;;;10.05;9.02;;;;;;;21.57;41.31;102253.53;5241665;28;20029;-73
2022/05/06 15:04:00;;;;;;;10.48;8.45;;;;;;;21.64;40.58;102253.88;5241021;28;20376;-72
2022/05/06 15:06:31;;;;;;;12.00;8.65;;;;;;;21.62;39.97;102251.38;5240787;28;20039;-76
2022/05/06 15:09:02;;;;;;;9.38;8.48;;;;;;;21.70;40.20;102247.75;5241242;28;20029;-73
2022/05/06 15:11:34;;;;;;;10.80;8.60;;;;;;;21.73;39.70;102245.41;5241293;28;20026;-71
2022/05/06 15:14:05;;;;;;;9.15;7.97;;;;;;;21.79;38.99;102255.38;5241613;28;20018;-73
2022/05/06 15:16:36;;;;;;;8.27;7.47;;;;;;;21.73;39.84;102245.41;5255996;28;20021;-73
2022/05/06 15:19:27;;;;;;;9.45;7.32;;;;;;;21.59;39.31;102240.75;5240659;28;20044;-74
2022/05/06 15:22:01;;;;;;;10.43;8.50;;;;;;;21.60;39.86;102242.44;5243672;28;20541;-75
2022/05/06 15:24:33;;;;;;;9.43;8.40;;;;;;;21.66;40.60;102238.28;5252759;28;20047;-73
2022/05/06 15:27:04;;;;;;;10.07;8.57;;;;;;;21.43;40.58;102236.75;5241523;28;20029;-73
2022/05/06 15:29:36;;;;;;;10.48;8.43;;;;;;;21.59;40.08;102234.28;5241418;28;20022;-73
2022/05/06 15:32:08;;;;;;;11.20;9.38;;;;;;;21.32;40.28;102229.72;5246342;28;20519;-76
2022/05/06 15:34:39;;;;;;;12.20;8.38;;;;;;;21.55;40.18;102228.47;5244663;28;20061;-74
2022/05/06 15:37:11;;;;;;;9.23;6.90;;;;;;;21.60;40.03;102230.28;5240489;28;20164;-76
2022/05/06 15:39:42;;;;;;;10.60;7.50;;;;;;;21.32;39.86;102229.72;5241513;28;20033;-76
2022/05/06 15:42:13;;;;;;;10.27;7.78;;;;;;;21.37;40.09;102221.97;5241326;28;20116;-76
2022/05/06 15:44:45;;;;;;;17.83;16.02;;;;;;;21.40;40.00;102231.78;5251180;28;20466;-77
2022/05/06 15:47:16;;;;;;;8.95;8.10;;;;;;;21.43;39.98;102226.31;5261657;28;20368;-76
2022/05/06 15:49:47;;;;;;;19.98;10.50;;;;;;;21.39;40.03;102235.75;5235780;28;20038;-75
2022/05/06 15:52:18;;;;;;;52.55;46.75;;;;;;;21.81;40.13;102236.13;5240447;28;20384;-72
2022/05/06 15:54:53;;;;;;;10.50;8.30;;;;;;;21.47;40.08;102220.81;5241523;28;20033;-73
2022/05/06 15:57:24;;;;;;;7.13;6.53;;;;;;;21.51;40.28;102219.00;5241062;28;20486;-73
2022/05/06 15:59:58;;;;;;;8.45;7.28;;;;;;;21.28;41.12;102224.75;5255086;28;20032;-73
2022/05/06 16:02:30;;;;;;;14.40;13.00;;;;;;;21.60;40.64;102219.84;5243220;28;20112;-73
2022/05/06 16:05:03;;;;;;;8.43;7.53;;;;;;;21.58;41.20;102210.88;5249400;28;20108;-74
2022/05/06 16:07:38;;;;;;;10.52;7.38;;;;;;;21.58;41.35;102210.06;5240315;28;20021;-72
2022/05/06 16:10:10;;;;;;;8.60;6.65;;;;;;;21.52;40.77;102212.19;5239124;28;20033;-75
2022/05/06 16:12:42;;;;;;;7.57;6.75;;;;;;;21.55;40.64;102222.84;5238800;28;20452;-74
2022/05/06 16:15:21;;;;;;;9.55;6.72;;;;;;;21.49;40.55;102213.69;5240340;28;20033;-74
2022/05/06 16:17:54;;;;;;;7.97;7.13;;;;;;;21.48;40.95;102212.03;5239910;28;20108;-76
2022/05/06 16:20:27;;;;;;;11.70;7.32;;;;;;;21.43;40.95;102214.19;5244266;28;20021;-77
2022/05/06 16:23:00;;;;;;;8.45;7.45;;;;;;;21.46;40.93;102219.16;5245008;28;20062;-76
2022/05/06 16:25:32;;;;;;;8.43;7.53;;;;;;;21.42;41.19;102215.34;5245399;28;20036;-76
2022/05/06 16:28:04;;;;;;;10.70;7.57;;;;;;;21.43;41.87;102214.19;5243914;28;20417;-77
2022/05/06 16:30:36;;;;;;;9.43;7.13;;;;;;;21.59;41.19;102212.53;5244873;28;20117;-73
2022/05/06 16:33:07;;;;;;;9.63;8.00;;;;;;;21.50;41.12;102206.06;5244741;28;20052;-74
2022/05/06 16:38:32;;;;;;;8.57;7.15;;;;;;;21.67;41.57;102194.75;5245065;28;20033;-75
2022/05/06 16:41:03;;;;;;;8.40;7.60;;;;;;;21.72;41.82;102196.59;5242890;28;20109;-77
2022/05/06 16:43:35;;;;;;;10.35;8.25;;;;;;;21.71;41.23;102194.94;5243855;28;20431;-75
2022/05/06 16:46:06;;;;;;;9.63;7.47;;;;;;;21.87;41.19;102196.06;5244633;28;20025;-74
2022/05/06 16:48:38;;;;;;;8.13;7.32;;;;;;;21.86;41.83;102188.78;5232386;28;20456;-73
2022/05/06 16:51:09;;;;;;;8.05;7.07;;;;;;;21.91;41.04;102187.78;5244616;28;20013;-75
2022/05/06 16:53:40;;;;;;;17.23;10.13;;;;;;;22.03;40.94;102199.19;5244498;28;20539;-74
2022/05/06 16:56:11;;;;;;;9.35;8.45;;;;;;;22.07;40.95;102196.53;5243419;28;20033;-75
2022/05/06 16:58:43;;;;;;;10.70;8.20;;;;;;;21.93;40.96;102197.56;5244682;28;20487;-72
2022/05/06 17:01:14;;;;;;;10.38;7.55;;;;;;;21.93;41.10;102197.56;5244670;28;20099;-72
2022/05/06 17:03:45;;;;;;;18.60;16.77;;;;;;;21.98;41.60;102193.72;5236678;28;20044;-73
2022/05/06 17:06:17;;;;;;;11.85;10.63;;;;;;;21.97;41.54;102189.25;5251012;28;20025;-73
2022/05/06 17:08:48;;;;;;;8.85;7.13;;;;;;;22.10;41.58;102193.03;5243393;28;20376;-74
2022/05/06 17:11:19;;;;;;;9.57;8.68;;;;;;;22.06;41.24;102197.69;5244411;28;20029;-73
2022/05/06 17:13:52;;;;;;;8.05;7.28;;;;;;;22.15;41.48;102190.84;5243881;28;20029;-75
2022/05/06 17:16:23;;;;;;;10.30;8.75;;;;;;;21.95;41.63;102191.56;5243352;28;20032;-73
2022/05/06 17:18:54;;;;;;;10.38;8.65;;;;;;;21.93;41.76;102193.88;5243928;28;20030;-73
2022/05/06 17:21:29;;;;;;;11.98;10.10;;;;;;;21.63;42.87;102207.06;5244038;28;20025;-73
2022/05/06 17:24:01;;;;;;;9.68;8.40;;;;;;;21.79;42.81;102196.09;5243041;28;20025;-72
2022/05/06 17:26:33;;;;;;;10.95;9.90;;;;;;;21.49;42.78;102193.91;5253063;28;20432;-73
2022/05/06 17:29:04;;;;;;;10.38;9.35;;;;;;;21.49;43.18;102195.91;5250580;28;20052;-75
